Time;durP1;ratioP1;P1;durP2;ratioP2;P2;SDS_P1;SDS_P2;PMS_P1;PMS_P2;Temp;Humidity;BMP_temperature;BMP_pressure;BME280_temperature;BME280_humidity;BME280_pressure;Samples;Min_cycle;Max_cycle;Signal;HPM_P1;HPM_P2
2022/03/13 00:00:39;;;;;;;8.60;5.30;;;;;;;-1.19;46.84;97232.81;4963954;28;20240;-65
2022/03/13 00:03:10;;;;;;;8.53;6.10;;;;;;;-1.20;48.95;97225.94;4950666;28;20305;-62
2022/03/13 00:05:41;;;;;;;5.73;5.07;;;;;;;-1.23;47.29;97230.50;4950812;28;20551;-64
2022/03/13 00:08:18;;;;;;;9.40;6.43;;;;;;;-1.19;47.71;97229.34;4926722;28;20971;-65
2022/03/13 00:10:50;;;;;;;4.93;4.53;;;;;;;-1.21;48.13;97221.69;4959736;28;21464;-63
2022/03/13 00:13:20;;;;;;;7.90;5.97;;;;;;;-1.28;48.46;97220.47;4961368;28;20338;-64
2022/03/13 00:15:48;;;;;;;6.40;5.90;;;;;;;-1.23;48.43;97214.91;4960148;28;20567;-61
2022/03/13 00:18:17;;;;;;;6.10;5.50;;;;;;;-1.27;47.72;97219.53;4959012;28;20308;-63
2022/03/13 00:20:46;;;;;;;6.30;5.70;;;;;;;-1.24;46.71;97214.09;4961072;28;20311;-65
2022/03/13 00:23:15;;;;;;;5.50;5.00;;;;;;;-1.26;47.26;97209.94;4932668;28;20222;-62
2022/03/13 00:25:44;;;;;;;5.73;5.23;;;;;;;-1.19;47.28;97205.94;4967855;28;20212;-63
2022/03/13 00:28:14;;;;;;;7.77;6.57;;;;;;;-1.22;46.91;97209.63;4946582;28;20242;-63
2022/03/13 00:30:43;;;;;;;6.77;5.97;;;;;;;-1.28;47.20;97201.41;4960948;28;20285;-64
2022/03/13 00:33:11;;;;;;;5.83;5.23;;;;;;;-1.41;46.84;97201.44;4958929;28;20202;-64
2022/03/13 00:35:40;;;;;;;8.50;5.70;;;;;;;-1.40;48.22;97203.09;4955984;28;20401;-65
2022/03/13 00:38:08;;;;;;;6.50;5.43;;;;;;;-1.48;46.85;97191.50;4953881;28;20254;-64
2022/03/13 00:40:37;;;;;;;8.67;6.27;;;;;;;-1.53;48.18;97193.59;4942059;28;20935;-66
2022/03/13 00:43:05;;;;;;;6.00;4.90;;;;;;;-1.61;47.96;97198.50;4960132;28;20237;-62
2022/03/13 00:45:35;;;;;;;6.03;5.47;;;;;;;-1.68;48.41;97187.69;4957206;28;20518;-64
2022/03/13 00:48:04;;;;;;;5.63;5.20;;;;;;;-1.78;48.41;97199.66;4962188;28;20606;-64
2022/03/13 00:50:33;;;;;;;5.70;5.20;;;;;;;-1.78;49.62;97200.47;4948612;28;20213;-65
2022/03/13 00:53:01;;;;;;;6.53;5.93;;;;;;;-1.77;49.65;97203.94;4964767;28;20214;-65
2022/03/13 00:55:29;;;;;;;5.93;5.13;;;;;;;-1.73;49.47;97191.53;4917845;28;20961;-65
2022/03/13 00:57:57;;;;;;;6.13;5.40;;;;;;;-1.81;48.77;97194.69;4967009;28;20265;-64
2022/03/13 01:00:26;;;;;;;7.80;6.73;;;;;;;-1.78;48.48;97186.69;4964896;28;20843;-63
2022/03/13 01:02:56;;;;;;;6.53;5.63;;;;;;;-1.73;47.58;97184.59;4950796;28;20210;-64
2022/03/13 01:05:26;;;;;;;6.50;5.90;;;;;;;-1.72;47.69;97191.44;4949419;28;20201;-65
2022/03/13 01:07:56;;;;;;;7.03;4.90;;;;;;;-1.78;48.75;97190.09;4950336;28;20665;-64
2022/03/13 01:10:25;;;;;;;6.60;5.87;;;;;;;-1.88;49.34;97194.28;4902554;28;20870;-65
2022/03/13 01:12:53;;;;;;;6.13;5.53;;;;;;;-1.97;49.61;97190.53;4961395;28;20395;-65
2022/03/13 01:15:22;;;;;;;6.57;5.87;;;;;;;-2.11;51.43;97182.88;4958561;28;20470;-62
2022/03/13 01:17:50;;;;;;;5.90;5.20;;;;;;;-2.06;49.24;97191.16;4966853;28;20321;-64
2022/03/13 01:20:22;;;;;;;6.80;6.10;;;;;;;-2.10;50.76;97187.13;4948506;28;20515;-65
2022/03/13 01:22:51;;;;;;;6.73;5.03;;;;;;;-2.28;50.66;97178.81;4962324;28;20239;-65
2022/03/13 01:25:19;;;;;;;6.60;5.83;;;;;;;-2.53;52.18;97190.81;4921554;28;20586;-65
2022/03/13 01:27:47;;;;;;;5.67;4.53;;;;;;;-2.44;50.87;97179.00;4962798;28;20374;-65
2022/03/13 01:30:16;;;;;;;5.80;5.30;;;;;;;-2.44;50.77;97186.78;4959379;28;20798;-62
2022/03/13 01:32:48;;;;;;;5.80;5.30;;;;;;;-2.62;52.48;97189.69;4957778;28;20240;-64
2022/03/13 01:35:22;;;;;;;6.83;6.03;;;;;;;-2.81;51.84;97184.88;4940839;28;20236;-65
2022/03/13 01:37:51;;;;;;;6.13;4.70;;;;;;;-2.85;54.77;97186.81;4962807;28;20256;-65
2022/03/13 01:40:22;;;;;;;5.83;5.33;;;;;;;-2.83;56.29;97184.16;4960059;28;20476;-64
2022/03/13 01:42:51;;;;;;;6.87;6.27;;;;;;;-2.79;55.83;97180.41;4929203;28;20644;-62
2022/03/13 01:45:20;;;;;;;6.93;5.50;;;;;;;-2.72;54.90;97184.28;4949371;28;20601;-62
2022/03/13 01:47:49;;;;;;;7.90;5.77;;;;;;;-2.71;52.88;97180.75;4964006;28;20245;-64
2022/03/13 01:50:18;;;;;;;6.03;5.23;;;;;;;-2.59;52.72;97178.25;4944154;28;20202;-60
2022/03/13 01:52:49;;;;;;;8.17;7.37;;;;;;;-2.62;53.59;97174.94;4965106;28;20601;-65
2022/03/13 01:55:18;;;;;;;6.70;6.10;;;;;;;-2.54;52.19;97169.25;4957833;28;20650;-65
2022/03/13 01:57:47;;;;;;;8.27;6.00;;;;;;;-2.51;52.89;97168.19;4928464;28;20230;-65
2022/03/13 02:00:16;;;;;;;6.63;5.63;;;;;;;-2.59;52.89;97175.66;4955543;28;20234;-59
2022/03/13 02:02:47;;;;;;;5.87;5.33;;;;;;;-2.63;52.98;97168.09;4958848;28;20214;-65
2022/03/13 02:05:27;;;;;;;7.37;5.87;;;;;;;-2.54;51.89;97160.63;4958191;28;20537;-63
2022/03/13 02:07:57;;;;;;;5.27;4.77;;;;;;;-2.55;52.28;97161.56;4948028;28;20228;-64
2022/03/13 02:10:25;;;;;;;6.63;5.43;;;;;;;-2.55;52.61;97156.38;4961520;28;20214;-64
2022/03/13 02:12:55;;;;;;;5.13;4.73;;;;;;;-2.52;51.76;97158.75;4926954;28;20441;-62
2022/03/13 02:15:30;;;;;;;5.97;5.40;;;;;;;-2.57;51.92;97156.50;4959770;28;20205;-64
2022/03/13 02:18:00;;;;;;;7.27;5.47;;;;;;;-2.73;52.54;97161.00;4961740;28;20236;-63
2022/03/13 02:20:29;;;;;;;5.37;4.87;;;;;;;-2.60;51.73;97154.09;4957606;28;20384;-64
2022/03/13 02:23:02;;;;;;;5.93;5.43;;;;;;;-2.73;51.48;97161.84;4945054;28;20336;-64
2022/03/13 02:25:34;;;;;;;5.13;4.70;;;;;;;-2.67;52.60;97148.47;4957623;28;20415;-65
2022/03/13 02:28:03;;;;;;;10.30;5.70;;;;;;;-2.66;52.50;97141.50;4925878;28;20320;-63
2022/03/13 02:30:31;;;;;;;5.93;5.40;;;;;;;-2.59;51.48;97141.94;4967668;28;21066;-65
2022/03/13 02:33:00;;;;;;;6.80;5.20;;;;;;;-2.68;52.44;97148.56;4963007;28;20284;-61
2022/03/13 02:35:29;;;;;;;6.37;5.73;;;;;;;-2.74;53.17;97148.97;4959115;28;20506;-63
2022/03/13 02:37:58;;;;;;;6.00;5.40;;;;;;;-2.71;51.27;97143.59;4957721;28;20693;-63
2022/03/13 02:40:28;;;;;;;5.30;4.80;;;;;;;-2.75;52.25;97145.56;4935868;28;20214;-64
2022/03/13 02:42:58;;;;;;;5.17;4.67;;;;;;;-2.61;49.78;97136.88;4959694;28;20564;-64
2022/03/13 02:45:31;;;;;;;6.23;5.63;;;;;;;-2.55;50.54;97143.41;4926224;28;20237;-66
2022/03/13 02:48:01;;;;;;;6.70;6.00;;;;;;;-2.55;50.35;97138.22;4961095;28;20230;-62
2022/03/13 02:50:29;;;;;;;5.83;5.27;;;;;;;-2.52;50.43;97135.41;4953129;28;20633;-64
2022/03/13 02:52:57;;;;;;;5.60;5.20;;;;;;;-2.49;49.93;97137.78;4963358;28;20297;-63
2022/03/13 02:55:28;;;;;;;5.60;5.10;;;;;;;-2.60;50.58;97138.53;4946083;28;20437;-66
2022/03/13 02:57:56;;;;;;;5.93;5.37;;;;;;;-2.73;50.67;97124.69;4957623;28;20873;-65
2022/03/13 03:00:42;;;;;;;6.53;5.93;;;;;;;-2.68;51.24;97136.44;4917989;28;20356;-67
2022/03/13 03:03:14;;;;;;;6.10;5.60;;;;;;;-2.89;52.32;97140.44;4955799;28;20209;-63
2022/03/13 03:05:43;;;;;;;6.27;5.67;;;;;;;-2.97;52.53;97144.38;4943344;28;20756;-62
2022/03/13 03:08:11;;;;;;;6.17;5.10;;;;;;;-2.98;51.97;97128.94;4946513;28;20592;-65
2022/03/13 03:10:42;;;;;;;8.37;5.40;;;;;;;-2.99;52.78;97145.41;4943290;28;20299;-60
2022/03/13 03:13:10;;;;;;;6.10;5.30;;;;;;;-3.06;52.57;97144.97;4940784;28;20560;-67
2022/03/13 03:15:39;;;;;;;7.73;6.17;;;;;;;-2.99;52.23;97143.66;4921358;28;20217;-63
2022/03/13 03:18:09;;;;;;;6.40;5.50;;;;;;;-3.06;52.28;97152.75;4961605;28;20453;-66
2022/03/13 03:20:38;;;;;;;8.17;5.30;;;;;;;-3.12;52.99;97156.56;4958640;28;20214;-62
2022/03/13 03:23:07;;;;;;;4.70;4.30;;;;;;;-3.08;50.90;97157.22;4944160;28;20781;-67
2022/03/13 03:25:35;;;;;;;6.33;5.07;;;;;;;-3.08;52.89;97152.84;4941422;28;20296;-63
2022/03/13 03:28:05;;;;;;;5.47;5.00;;;;;;;-3.21;53.51;97152.81;4961888;28;20229;-66
2022/03/13 03:30:34;;;;;;;9.63;5.70;;;;;;;-3.31;53.81;97153.50;4961547;28;20211;-64
2022/03/13 03:33:03;;;;;;;6.07;5.10;;;;;;;-3.29;53.58;97154.25;4928165;28;20261;-66
2022/03/13 03:35:32;;;;;;;6.77;6.23;;;;;;;-3.57;54.77;97155.97;4962838;28;20495;-65
2022/03/13 03:38:00;;;;;;;7.70;5.70;;;;;;;-3.49;55.63;97157.16;4956252;28;20221;-66
2022/03/13 03:40:30;;;;;;;9.30;6.77;;;;;;;-3.84;57.86;97164.53;4945731;28;20345;-65
2022/03/13 03:42:59;;;;;;;12.47;6.60;;;;;;;-3.96;61.84;97155.78;4962789;28;20222;-66
2022/03/13 03:45:29;;;;;;;6.57;5.97;;;;;;;-4.02;60.44;97156.97;4946214;28;20221;-64
2022/03/13 03:47:57;;;;;;;5.87;5.27;;;;;;;-4.15;61.41;97156.88;4918088;28;20252;-65
2022/03/13 03:50:26;;;;;;;5.80;5.13;;;;;;;-3.88;62.54;97161.31;4942941;28;20224;-64
2022/03/13 03:52:55;;;;;;;6.23;5.37;;;;;;;-3.90;59.98;97160.56;4957239;28;20297;-66
2022/03/13 03:55:24;;;;;;;5.43;4.97;;;;;;;-3.98;61.40;97157.59;4942805;28;20708;-66
2022/03/13 03:57:52;;;;;;;5.83;5.43;;;;;;;-3.87;61.81;97164.72;4954000;28;20226;-63
2022/03/13 04:00:23;;;;;;;6.03;5.47;;;;;;;-4.08;62.25;97160.75;4959590;28;20728;-65
2022/03/13 04:02:54;;;;;;;6.10;5.63;;;;;;;-4.09;63.28;97159.09;4917031;28;20591;-63
2022/03/13 04:05:23;;;;;;;5.47;4.90;;;;;;;-3.95;61.89;97166.03;4966422;28;20216;-66
2022/03/13 04:07:51;;;;;;;5.63;4.90;;;;;;;-4.13;63.00;97165.38;4943964;28;20229;-64
2022/03/13 04:10:19;;;;;;;5.13;4.67;;;;;;;-4.29;63.91;97168.06;4964713;28;20209;-66
2022/03/13 04:12:48;;;;;;;4.80;4.40;;;;;;;-4.22;62.90;97177.09;4942080;28;20217;-63
2022/03/13 04:15:16;;;;;;;5.77;5.13;;;;;;;-4.22;64.95;97173.69;4967815;28;20415;-66
2022/03/13 04:17:44;;;;;;;5.83;5.33;;;;;;;-4.27;66.84;97170.56;4939010;28;20236;-63
2022/03/13 04:20:14;;;;;;;6.07;5.47;;;;;;;-4.34;64.90;97170.09;4951500;28;20211;-67
2022/03/13 04:22:42;;;;;;;6.20;5.60;;;;;;;-4.32;64.92;97167.41;4957917;28;20264;-65
2022/03/13 04:25:11;;;;;;;7.07;5.03;;;;;;;-4.40;62.64;97168.69;4957666;28;20683;-64
2022/03/13 04:27:39;;;;;;;7.87;5.30;;;;;;;-4.49;65.85;97150.31;4939808;28;20579;-64
2022/03/13 04:30:09;;;;;;;6.10;5.60;;;;;;;-4.30;64.56;97168.16;4958217;28;20408;-63
2022/03/13 04:32:37;;;;;;;5.20;4.70;;;;;;;-4.54;65.30;97166.94;4962400;28;20746;-63
2022/03/13 04:35:06;;;;;;;5.93;5.33;;;;;;;-4.34;62.93;97167.50;4924769;28;20769;-67
2022/03/13 04:37:35;;;;;;;5.83;5.03;;;;;;;-4.60;67.99;97177.63;4957628;28;20229;-64
2022/03/13 04:40:05;;;;;;;6.27;5.67;;;;;;;-4.46;66.95;97166.47;4959953;28;20210;-67
2022/03/13 04:42:33;;;;;;;7.97;5.03;;;;;;;-4.39;63.18;97169.53;4950044;28;20236;-65
2022/03/13 04:45:02;;;;;;;5.60;5.10;;;;;;;-4.54;63.94;97171.25;4952859;28;20215;-64
2022/03/13 04:47:31;;;;;;;6.03;5.40;;;;;;;-4.57;65.56;97167.09;4960240;28;20649;-66
2022/03/13 04:49:59;;;;;;;5.27;4.77;;;;;;;-4.73;69.80;97181.84;4923260;28;20209;-66
2022/03/13 04:52:27;;;;;;;6.43;5.13;;;;;;;-4.50;63.76;97180.50;4958898;28;20420;-63
2022/03/13 04:54:57;;;;;;;8.03;5.20;;;;;;;-4.61;64.26;97193.22;4965643;28;21187;-66
2022/03/13 04:57:25;;;;;;;5.77;4.70;;;;;;;-4.51;63.44;97181.44;4941449;28;20226;-64
2022/03/13 04:59:53;;;;;;;6.60;6.00;;;;;;;-4.56;63.29;97196.38;4965613;28;20467;-64
2022/03/13 05:02:21;;;;;;;5.40;4.90;;;;;;;-4.74;61.20;97196.50;4957571;28;20489;-62
2022/03/13 05:04:49;;;;;;;5.83;4.67;;;;;;;-4.60;61.85;97192.31;4961950;28;20600;-67
2022/03/13 05:07:21;;;;;;;6.00;5.27;;;;;;;-4.71;62.42;97198.94;4920108;28;20245;-63
2022/03/13 05:09:50;;;;;;;7.23;5.47;;;;;;;-4.84;65.77;97201.41;4949646;28;20209;-65
2022/03/13 05:12:21;;;;;;;5.63;4.53;;;;;;;-4.73;68.39;97205.09;4959056;28;20206;-60
2022/03/13 05:14:50;;;;;;;9.63;5.27;;;;;;;-4.82;65.61;97202.13;4943287;28;20693;-61
2022/03/13 05:17:18;;;;;;;5.30;4.87;;;;;;;-4.69;70.32;97197.09;4963922;28;20233;-61
2022/03/13 05:19:46;;;;;;;6.27;5.50;;;;;;;-4.74;72.33;97196.50;4965852;28;20302;-65
2022/03/13 05:22:15;;;;;;;7.73;6.53;;;;;;;-4.63;71.30;97206.25;4919681;28;21106;-62
2022/03/13 05:24:43;;;;;;;5.73;5.07;;;;;;;-4.76;75.98;97203.53;4942820;28;20428;-63
2022/03/13 05:27:11;;;;;;;5.87;5.27;;;;;;;-4.81;74.86;97200.38;4962450;28;20238;-64
2022/03/13 05:29:41;;;;;;;6.43;5.03;;;;;;;-4.69;72.46;97199.69;4939078;28;20275;-65
2022/03/13 05:32:09;;;;;;;6.23;5.47;;;;;;;-4.72;69.05;97205.03;4963602;28;20630;-62
2022/03/13 05:34:38;;;;;;;5.50;5.00;;;;;;;-4.83;68.57;97204.78;4959475;28;20206;-61
2022/03/13 05:37:06;;;;;;;5.27;4.73;;;;;;;-4.66;68.62;97204.69;4920212;28;20236;-64
2022/03/13 05:39:34;;;;;;;7.17;4.97;;;;;;;-4.75;68.06;97210.34;4968559;28;20661;-64
2022/03/13 05:42:05;;;;;;;5.97;5.47;;;;;;;-4.74;69.64;97217.19;4940064;28;20210;-65
2022/03/13 05:44:35;;;;;;;4.87;4.47;;;;;;;-4.86;69.29;97223.91;4941501;28;21829;-63
2022/03/13 05:47:05;;;;;;;7.10;5.43;;;;;;;-4.70;65.02;97223.88;4955724;28;20233;-59
2022/03/13 05:49:33;;;;;;;5.40;4.90;;;;;;;-4.70;69.62;97221.28;4954227;28;20396;-62
2022/03/13 05:52:01;;;;;;;5.27;4.77;;;;;;;-4.57;66.13;97226.56;4962115;28;20399;-64
2022/03/13 05:54:30;;;;;;;6.97;5.70;;;;;;;-4.43;67.58;97219.78;4916513;28;20222;-59
2022/03/13 05:57:03;;;;;;;5.97;5.50;;;;;;;-4.56;68.49;97220.47;4956800;28;20232;-63
2022/03/13 05:59:33;;;;;;;5.53;5.00;;;;;;;-4.42;70.93;97226.63;4940506;28;20233;-62
2022/03/13 06:02:04;;;;;;;7.33;4.87;;;;;;;-4.43;70.54;97230.13;4935060;28;20350;-60
2022/03/13 06:04:35;;;;;;;5.20;4.80;;;;;;;-4.39;66.75;97232.44;4958667;28;20212;-63
2022/03/13 06:07:04;;;;;;;8.70;6.07;;;;;;;-4.50;71.35;97232.22;4960779;28;20229;-65
2022/03/13 06:09:33;;;;;;;6.30;5.13;;;;;;;-4.42;70.49;97227.44;4934339;28;20559;-62
2022/03/13 06:12:01;;;;;;;6.07;5.47;;;;;;;-4.13;64.75;97232.66;4961426;28;20210;-61
2022/03/13 06:14:30;;;;;;;6.00;5.40;;;;;;;-3.99;63.49;97234.44;4961902;28;20940;-63
2022/03/13 06:16:58;;;;;;;6.27;4.50;;;;;;;-3.96;62.51;97234.25;4945863;28;20685;-63
2022/03/13 06:19:26;;;;;;;5.77;5.20;;;;;;;-4.01;64.50;97236.28;4959394;28;20477;-64
2022/03/13 06:21:55;;;;;;;5.20;4.70;;;;;;;-3.89;58.67;97241.63;4958800;28;20238;-64
2022/03/13 06:24:23;;;;;;;4.97;4.57;;;;;;;-3.84;61.25;97249.97;4919396;28;20225;-60
2022/03/13 06:26:51;;;;;;;4.87;4.47;;;;;;;-3.72;62.29;97243.22;4962532;28;20268;-64
2022/03/13 06:29:20;;;;;;;5.80;5.30;;;;;;;-3.66;61.22;97243.69;4937586;28;20223;-62
2022/03/13 06:31:47;;;;;;;6.07;5.57;;;;;;;-3.60;62.42;97247.63;4940261;28;20799;-67
2022/03/13 06:34:16;;;;;;;5.97;5.43;;;;;;;-3.51;63.03;97243.66;4962558;28;20241;-65
2022/03/13 06:36:44;;;;;;;5.67;5.07;;;;;;;-3.36;62.37;97247.91;4957620;28;20276;-65
2022/03/13 06:39:13;;;;;;;6.43;5.70;;;;;;;-3.28;61.91;97246.59;4914154;28;20222;-65
2022/03/13 06:41:41;;;;;;;5.50;5.00;;;;;;;-3.27;60.27;97251.66;4973019;28;20839;-62
2022/03/13 06:44:09;;;;;;;5.57;5.07;;;;;;;-3.24;60.03;97250.66;4958607;28;20260;-64
2022/03/13 06:46:38;;;;;;;5.37;4.87;;;;;;;-3.07;61.55;97253.00;4959031;28;20222;-62
2022/03/13 06:49:06;;;;;;;6.13;5.57;;;;;;;-2.97;59.85;97257.63;4919850;28;20218;-63
2022/03/13 06:51:39;;;;;;;8.47;5.90;;;;;;;-2.70;56.63;97246.41;4954770;28;20210;-66
2022/03/13 06:54:09;;;;;;;6.03;5.30;;;;;;;-2.61;57.07;97251.03;4958601;28;20218;-63
2022/03/13 06:56:40;;;;;;;5.40;4.90;;;;;;;-2.46;55.44;97262.16;4948423;28;20232;-65
2022/03/13 06:59:08;;;;;;;6.20;5.57;;;;;;;-2.33;54.54;97260.41;4959308;28;20209;-68
2022/03/13 07:01:37;;;;;;;5.63;5.00;;;;;;;-2.18;55.04;97262.91;4966793;28;20401;-67
2022/03/13 07:04:06;;;;;;;9.40;5.80;;;;;;;-1.98;51.87;97256.38;4945466;28;20328;-64
2022/03/13 07:06:34;;;;;;;5.83;5.33;;;;;;;-1.91;51.65;97267.19;4953340;28;20198;-67
2022/03/13 07:09:02;;;;;;;7.78;5.95;;;;;;;-1.61;51.83;97269.47;4965100;28;20487;-65
2022/03/13 07:11:34;;;;;;;6.63;5.83;;;;;;;-1.47;50.63;97259.91;4928310;28;20218;-66
2022/03/13 07:14:09;;;;;;;5.77;5.27;;;;;;;-1.42;51.11;97260.41;4960295;28;20197;-66
2022/03/13 07:16:37;;;;;;;5.57;5.07;;;;;;;-1.37;49.82;97265.28;4958860;28;20276;-69
2022/03/13 07:19:06;;;;;;;6.23;5.33;;;;;;;-1.09;48.57;97264.19;4948936;28;20209;-66
2022/03/13 07:21:34;;;;;;;4.30;3.93;;;;;;;-0.90;48.55;97260.25;4958411;28;20226;-68
2022/03/13 07:24:02;;;;;;;5.47;4.93;;;;;;;-0.88;49.38;97260.97;4948765;28;20238;-67
2022/03/13 07:26:30;;;;;;;6.73;5.40;;;;;;;-0.64;46.89;97263.56;4926637;28;20206;-67
2022/03/13 07:29:01;;;;;;;4.93;4.47;;;;;;;-0.59;47.48;97258.88;4966497;28;20206;-67
2022/03/13 07:31:30;;;;;;;5.77;4.43;;;;;;;-0.62;46.77;97260.88;4946141;28;20212;-68
2022/03/13 07:33:58;;;;;;;6.93;4.83;;;;;;;-0.40;47.47;97262.75;4960889;28;20212;-63
2022/03/13 07:36:27;;;;;;;5.73;5.23;;;;;;;-0.39;48.23;97253.97;4944872;28;21073;-64
2022/03/13 07:38:55;;;;;;;5.73;5.20;;;;;;;-0.25;46.39;97257.31;4930685;28;20241;-65
2022/03/13 07:41:23;;;;;;;5.70;5.20;;;;;;;-0.08;46.39;97254.31;4930535;28;20957;-66
2022/03/13 07:43:51;;;;;;;6.03;5.50;;;;;;;-0.01;45.60;97255.50;4957056;28;20308;-68
2022/03/13 07:46:19;;;;;;;6.57;5.87;;;;;;;0.02;46.45;97244.03;4963384;28;20935;-67
2022/03/13 07:48:49;;;;;;;5.60;5.10;;;;;;;0.05;46.04;97245.56;4961626;28;20208;-66
2022/03/13 07:51:17;;;;;;;6.73;5.67;;;;;;;0.31;44.54;97245.34;4948087;28;20214;-66
2022/03/13 07:53:45;;;;;;;5.43;4.93;;;;;;;0.45;45.21;97242.50;4934145;28;20206;-67
2022/03/13 07:56:15;;;;;;;6.10;5.50;;;;;;;0.49;44.93;97245.72;4933604;28;20202;-66
2022/03/13 07:58:43;;;;;;;5.63;5.13;;;;;;;0.66;43.87;97233.97;4965505;28;20202;-69
2022/03/13 08:01:11;;;;;;;6.37;5.47;;;;;;;0.73;44.21;97237.75;4963696;28;20214;-67
2022/03/13 08:03:44;;;;;;;5.90;5.40;;;;;;;0.96;43.92;97238.53;4965842;28;20225;-69
2022/03/13 08:06:13;;;;;;;8.10;6.27;;;;;;;1.19;43.92;97238.50;4955922;28;20221;-64
2022/03/13 08:08:41;;;;;;;8.63;6.03;;;;;;;1.33;43.15;97229.56;4951599;28;20233;-67
2022/03/13 08:11:09;;;;;;;6.27;5.67;;;;;;;1.55;43.14;97233.00;4962608;28;20303;-66
2022/03/13 08:13:37;;;;;;;5.77;5.10;;;;;;;1.50;42.92;97235.97;4931212;28;20206;-68
2022/03/13 08:16:05;;;;;;;6.30;5.63;;;;;;;1.44;42.59;97239.09;4968329;28;20205;-67
2022/03/13 08:18:35;;;;;;;6.20;5.60;;;;;;;1.25;42.80;97234.53;4945100;28;20256;-65
2022/03/13 08:21:04;;;;;;;6.43;5.27;;;;;;;1.53;43.00;97230.53;4948486;28;20244;-68
2022/03/13 08:23:34;;;;;;;5.67;5.07;;;;;;;1.71;41.90;97235.19;4948031;28;20232;-65
2022/03/13 08:26:02;;;;;;;7.07;6.17;;;;;;;1.95;42.20;97240.16;4950546;28;20233;-66
2022/03/13 08:28:31;;;;;;;6.70;6.00;;;;;;;1.93;41.80;97241.25;4934970;28;20234;-66
2022/03/13 08:30:59;;;;;;;6.07;5.47;;;;;;;1.87;41.62;97243.41;4961682;28;20471;-66
2022/03/13 08:33:27;;;;;;;7.67;5.17;;;;;;;1.98;42.62;97239.88;4964396;28;20206;-65
2022/03/13 08:35:55;;;;;;;5.97;5.47;;;;;;;2.12;41.80;97240.53;4961080;28;20298;-67
2022/03/13 08:38:23;;;;;;;6.13;5.53;;;;;;;2.10;41.48;97240.66;4953012;28;20550;-67
2022/03/13 08:40:53;;;;;;;6.10;5.17;;;;;;;2.10;41.14;97237.22;4943675;28;21127;-65
2022/03/13 08:43:21;;;;;;;7.10;6.40;;;;;;;2.43;40.95;97243.13;4933911;28;20218;-68
2022/03/13 08:45:49;;;;;;;6.87;5.90;;;;;;;2.63;40.73;97238.00;4958294;28;20226;-64
2022/03/13 08:48:22;;;;;;;6.23;5.50;;;;;;;3.06;40.04;97236.06;4951313;28;20234;-66
2022/03/13 08:50:51;;;;;;;6.47;5.87;;;;;;;3.45;38.38;97244.78;4958881;28;20273;-64
2022/03/13 08:53:19;;;;;;;8.83;6.23;;;;;;;3.16;39.42;97236.91;4965677;28;20680;-67
2022/03/13 08:55:47;;;;;;;6.27;5.67;;;;;;;3.29;39.57;97241.88;4952138;28;20644;-65
2022/03/13 08:58:16;;;;;;;7.17;6.43;;;;;;;2.96;39.68;97254.34;4913576;28;20241;-67
2022/03/13 09:00:45;;;;;;;6.90;6.30;;;;;;;3.14;39.22;97241.44;4968352;28;20213;-65
2022/03/13 09:03:13;;;;;;;7.77;6.00;;;;;;;3.53;37.92;97238.00;4963744;28;20221;-67
2022/03/13 09:05:41;;;;;;;6.30;5.80;;;;;;;3.87;38.20;97242.81;4961734;28;20226;-64
2022/03/13 09:08:09;;;;;;;8.50;6.20;;;;;;;3.53;38.57;97243.25;4965008;28;22265;-67
2022/03/13 09:10:38;;;;;;;6.90;5.93;;;;;;;3.13;38.87;97232.75;4948146;28;21076;-64
2022/03/13 09:13:06;;;;;;;5.83;5.43;;;;;;;3.76;38.71;97236.75;4948829;28;20213;-65
2022/03/13 09:15:39;;;;;;;6.77;6.17;;;;;;;3.52;38.46;97229.34;4949094;28;20871;-67
2022/03/13 09:18:07;;;;;;;6.03;5.30;;;;;;;3.96;38.11;97228.84;4964126;28;20225;-64
2022/03/13 09:20:35;;;;;;;6.17;5.57;;;;;;;3.60;38.42;97231.28;4948267;28;20214;-65
2022/03/13 09:23:04;;;;;;;6.40;5.60;;;;;;;3.72;38.47;97230.16;4965146;28;20213;-65
2022/03/13 09:25:33;;;;;;;7.03;6.20;;;;;;;4.18;37.57;97232.13;4953475;28;20232;-66
2022/03/13 09:28:01;;;;;;;11.37;7.07;;;;;;;4.12;37.92;97230.09;4947837;28;20244;-64
2022/03/13 09:30:29;;;;;;;6.50;5.90;;;;;;;4.36;37.76;97224.34;4929294;28;20245;-68
2022/03/13 09:32:59;;;;;;;6.27;5.63;;;;;;;4.32;37.46;97220.38;4969865;28;20206;-66
2022/03/13 09:35:27;;;;;;;7.00;5.57;;;;;;;4.17;37.40;97218.22;4948901;28;20292;-64
2022/03/13 09:37:55;;;;;;;9.80;6.47;;;;;;;4.23;37.48;97226.47;4960892;28;20980;-65
2022/03/13 09:40:26;;;;;;;7.43;6.20;;;;;;;4.33;36.98;97232.50;4950482;28;20897;-65
2022/03/13 09:42:54;;;;;;;5.73;5.27;;;;;;;4.71;35.51;97235.94;4971105;28;20208;-64
2022/03/13 09:45:23;;;;;;;8.80;5.50;;;;;;;4.88;35.49;97223.84;4918266;28;20356;-64
2022/03/13 09:47:51;;;;;;;6.03;5.50;;;;;;;4.87;36.24;97219.56;4964780;28;20235;-66
2022/03/13 09:50:21;;;;;;;5.30;4.90;;;;;;;4.57;36.33;97221.50;4965555;28;20288;-63
2022/03/13 09:52:49;;;;;;;13.53;7.03;;;;;;;5.39;34.95;97207.59;4959252;28;20213;-57
2022/03/13 09:55:18;;;;;;;6.77;6.10;;;;;;;5.80;33.99;97215.81;4957736;28;20209;-57
2022/03/13 09:57:48;;;;;;;7.43;5.60;;;;;;;5.60;33.83;97215.16;4945653;28;20234;-57
2022/03/13 10:00:20;;;;;;;6.77;5.90;;;;;;;5.80;33.07;97205.31;4957252;28;20343;-60
2022/03/13 10:02:49;;;;;;;5.87;5.37;;;;;;;5.95;33.27;97210.03;4926436;28;20197;-64
2022/03/13 10:05:20;;;;;;;7.17;6.50;;;;;;;6.27;33.32;97205.97;4962767;28;20234;-59
2022/03/13 10:07:56;;;;;;;6.87;6.23;;;;;;;6.58;32.60;97208.09;4958573;28;20222;-54
2022/03/13 10:10:26;;;;;;;6.23;5.53;;;;;;;6.40;32.26;97202.09;4959570;28;20198;-54
2022/03/13 10:12:54;;;;;;;6.63;6.13;;;;;;;6.24;32.90;97206.25;4952173;28;20374;-51
2022/03/13 10:15:25;;;;;;;7.13;6.00;;;;;;;6.44;32.33;97206.06;4955821;28;20221;-58
2022/03/13 10:17:53;;;;;;;5.83;5.27;;;;;;;6.51;31.60;97199.16;4924721;28;20238;-56
2022/03/13 10:20:23;;;;;;;5.90;5.33;;;;;;;6.76;33.00;97194.81;4947008;28;20225;-61
2022/03/13 10:23:04;;;;;;;6.90;6.20;;;;;;;7.06;31.61;97194.44;4961120;28;20320;-58
2022/03/13 10:25:33;;;;;;;6.30;5.70;;;;;;;6.77;32.12;97187.75;4957207;28;20309;-53
2022/03/13 10:28:13;;;;;;;6.03;5.50;;;;;;;6.81;32.04;97184.63;4948723;28;20243;-55
2022/03/13 10:30:41;;;;;;;5.63;5.13;;;;;;;6.80;31.77;97179.53;4941570;28;20983;-54
2022/03/13 10:33:09;;;;;;;8.70;5.93;;;;;;;6.97;31.22;97169.88;4903212;28;20233;-53
2022/03/13 10:35:38;;;;;;;6.00;5.40;;;;;;;7.06;31.75;97165.44;4941021;28;20719;-59
2022/03/13 10:38:17;;;;;;;6.07;5.47;;;;;;;6.77;31.53;97169.31;4961889;28;20229;-54
2022/03/13 10:40:46;;;;;;;6.23;5.63;;;;;;;6.81;31.52;97168.03;4941749;28;20213;-56
2022/03/13 10:43:19;;;;;;;5.47;4.97;;;;;;;7.07;31.83;97162.63;4946102;28;20225;-55
2022/03/13 10:45:54;;;;;;;6.40;5.80;;;;;;;7.26;30.91;97162.50;4957930;28;20222;-50
2022/03/13 10:48:30;;;;;;;5.30;4.80;;;;;;;7.52;31.55;97157.06;4929989;28;20233;-54
2022/03/13 10:50:59;;;;;;;6.60;5.93;;;;;;;7.73;30.99;97158.38;4957230;28;20198;-50
2022/03/13 10:53:29;;;;;;;6.27;5.77;;;;;;;8.03;29.83;97154.22;4957863;28;20691;-51
2022/03/13 10:56:15;;;;;;;7.17;6.00;;;;;;;7.88;30.66;97151.44;4944660;28;20205;-52
2022/03/13 10:58:47;;;;;;;6.40;5.90;;;;;;;8.01;31.40;97150.91;4945085;28;20210;-57
2022/03/13 11:01:17;;;;;;;6.60;6.00;;;;;;;7.95;30.47;97146.31;4961592;28;20206;-56
2022/03/13 11:03:49;;;;;;;6.60;5.97;;;;;;;8.05;31.24;97146.94;4906584;28;20222;-60
2022/03/13 11:06:18;;;;;;;6.03;5.47;;;;;;;8.17;30.45;97142.13;4947780;28;20803;-58
2022/03/13 11:08:53;;;;;;;6.37;5.73;;;;;;;8.48;30.14;97136.09;4956782;28;20225;-56
2022/03/13 11:11:22;;;;;;;7.37;5.90;;;;;;;8.17;31.18;97136.84;4943718;28;20238;-57
2022/03/13 11:13:52;;;;;;;6.57;5.93;;;;;;;8.23;29.63;97132.72;4942131;28;20291;-52
2022/03/13 11:16:24;;;;;;;6.40;5.90;;;;;;;8.17;30.22;97134.22;4957420;28;20240;-51
2022/03/13 11:18:54;;;;;;;6.23;5.67;;;;;;;8.26;30.66;97132.38;4922032;28;21199;-54
2022/03/13 11:21:23;;;;;;;6.50;5.90;;;;;;;8.45;30.51;97123.22;4970710;28;20240;-57
2022/03/13 11:23:53;;;;;;;6.50;5.57;;;;;;;8.57;29.99;97125.50;4957957;28;20241;-54
2022/03/13 11:26:24;;;;;;;6.57;5.97;;;;;;;8.54;30.69;97124.06;4949996;28;20233;-51
2022/03/13 11:28:52;;;;;;;6.63;5.90;;;;;;;8.81;30.18;97120.13;4944237;28;20955;-51
2022/03/13 11:31:44;;;;;;;6.43;5.90;;;;;;;8.81;30.15;97122.75;4968609;28;20204;-51
2022/03/13 11:34:14;;;;;;;6.60;5.97;;;;;;;9.09;29.49;97126.69;4910458;28;20217;-53
2022/03/13 11:36:43;;;;;;;7.57;6.73;;;;;;;9.19;29.83;97127.28;4963503;28;20229;-58
2022/03/13 11:39:14;;;;;;;6.23;5.67;;;;;;;9.31;28.77;97125.06;4973429;28;20831;-47
2022/03/13 11:41:44;;;;;;;6.33;5.50;;;;;;;9.22;29.92;97126.13;4924703;28;20239;-53
2022/03/13 11:44:39;;;;;;;6.57;5.97;;;;;;;9.48;28.11;97124.94;4963034;28;20221;-54
2022/03/13 11:47:22;;;;;;;5.87;5.37;;;;;;;9.47;28.47;97116.16;4966511;28;20259;-59